M S San Francisco — WZC3886 — position and weather

sailwx.info

Track history (hours):
 
Tides and Currents Weather Stations Pressure Air Temp Water Temp Dewpoint Dewpoint Depression Visibility Wind Speed Wind Dir Waves Ship Positions

M S San Francisco

Owner: GOLDEN GATE BRIDGE HWY & TRANSP DISTRICT, LARKSPUR, CA. More information available from US FCC via Universal Licensing System and Coast Guard Vessel Documentation Center.

Last reported at 2016-Aug-30 21:33 UTC. Time now 2016-Aug-30 22:30 UTC.
Position N 37°57' W 122°30'.

Length 58 m.

Type: Passenger vessel. MMSI: 366963980.

Date/timePositionNaut miles runAvg speedWind from/ knotsBaromVisibWave heightAir tempDewpointWater temp
2016-Aug-30 21:33N 37°57' W 122°30'4 0.2
2016-Aug-30 03:33N 37°55' W 122°26'4 3.7
2016-Aug-30 02:33N 37°51' W 122°29'6 5.5
2016-Aug-30 01:34N 37°48' W 122°23'4 4.3
2016-Aug-30 00:33N 37°51' W 122°27'0 0.4
2016-Aug-29 23:34N 37°51' W 122°27'4 3.8
2016-Aug-29 22:33N 37°48' W 122°23'10 9.9
2016-Aug-29 21:33N 37°56' W 122°30'1 0.6
2016-Aug-29 20:33N 37°57' W 122°31'0 0.0
2016-Aug-29 19:34N 37°57' W 122°31'0 0.0
2016-Aug-29 18:33N 37°57' W 122°31'0 0.0
2016-Aug-29 17:33N 37°57' W 122°31'0 0.0
2016-Aug-29 16:30N 37°57' W 122°31'0 0.0
2016-Aug-29 15:34N 37°57' W 122°31'0 0.0
2016-Aug-29 14:33N 37°57' W 122°31'0 0.0
2016-Aug-29 13:33N 37°57' W 122°31'0 0.0
2016-Aug-29 12:32N 37°57' W 122°31'0 0.0
2016-Aug-29 11:33N 37°57' W 122°31'0 0.0
2016-Aug-29 10:33N 37°57' W 122°31'0 0.0
2016-Aug-29 09:33N 37°57' W 122°31'0 0.0
2016-Aug-29 08:33N 37°57' W 122°31'0 0.0
2016-Aug-29 07:33N 37°57' W 122°31'0 0.0
2016-Aug-29 06:33N 37°57' W 122°31'0 0.0
2016-Aug-29 05:33N 37°57' W 122°31'0 0.0
2016-Aug-29 04:33N 37°57' W 122°31'0 0.0
2016-Aug-29 03:33N 37°57' W 122°31'0 0.0
2016-Aug-29 02:33N 37°57' W 122°31'1010.5
2016-Aug-29 01:33N 37°48' W 122°23'6 5.5
2016-Aug-29 00:33N 37°51' W 122°29'5 5.4
2016-Aug-28 23:33N 37°48' W 122°24'5 5.4
2016-Aug-28 22:33N 37°51' W 122°29'5 5.2
2016-Aug-28 21:33N 37°48' W 122°23'0 0.2
2016-Aug-28 20:34N 37°49' W 122°23'5 5.0
2016-Aug-28 19:33N 37°51' W 122°29'2 2.3
2016-Aug-28 18:33N 37°50' W 122°26'3 3.2
2016-Aug-28 17:33N 37°48' W 122°24'1110.6
2016-Aug-28 16:33N 37°57' W 122°31'7 0.6
2016-Aug-28 04:34N 37°51' W 122°24'5 4.8
2016-Aug-28 03:33N 37°47' W 122°23'0 0.0
2016-Aug-28 02:33N 37°47' W 122°23'0 0.0
2016-Aug-28 01:33N 37°47' W 122°23'0 0.0
2016-Aug-28 00:33N 37°47' W 122°23'1211.6
2016-Aug-27 23:33N 37°57' W 122°31'0 0.0
2016-Aug-27 22:33N 37°57' W 122°31'0 0.0
2016-Aug-27 21:33N 37°57' W 122°31'0 0.0
2016-Aug-27 20:33N 37°57' W 122°31'0 0.0
2016-Aug-27 19:33N 37°57' W 122°31'0 0.0
2016-Aug-27 18:33N 37°57' W 122°31'0 0.0
2016-Aug-27 17:33N 37°57' W 122°31'0 0.0
2016-Aug-27 16:33N 37°57' W 122°31'0 0.0
2016-Aug-27 15:33N 37°57' W 122°31'0 0.0
2016-Aug-27 14:33N 37°57' W 122°31'0 0.0
2016-Aug-27 13:33N 37°57' W 122°31'0 0.0
2016-Aug-27 12:33N 37°57' W 122°31'0 0.0
2016-Aug-27 11:33N 37°57' W 122°31'0 0.0
2016-Aug-27 10:33N 37°57' W 122°31'0 0.0
2016-Aug-27 09:33N 37°57' W 122°31'0 0.0
2016-Aug-27 08:33N 37°57' W 122°31'0 0.0
2016-Aug-27 07:33N 37°57' W 122°31'0 0.0
2016-Aug-27 06:33N 37°57' W 122°31'0 0.0
2016-Aug-27 04:33N 37°57' W 122°31'6 5.9
2016-Aug-27 03:33N 37°53' W 122°25'3 2.9
2016-Aug-27 02:33N 37°51' W 122°29'6 5.6
2016-Aug-27 01:34N 37°48' W 122°23'4 3.9
2016-Aug-27 00:34N 37°51' W 122°26'1 0.6
2016-Aug-26 23:33N 37°51' W 122°27'4 4.2
2016-Aug-26 22:33N 37°48' W 122°24'0 0.5
2016-Aug-26 21:34N 37°48' W 122°23'1010.3
2016-Aug-26 20:33N 37°57' W 122°31'3 0.2
2016-Aug-26 03:33N 37°55' W 122°27'4 3.9
2016-Aug-26 02:34N 37°51' W 122°29'5 5.5
2016-Aug-26 01:33N 37°48' W 122°23'4 4.0
2016-Aug-26 00:33N 37°51' W 122°27'1 0.5
2016-Aug-25 23:34N 37°51' W 122°27'4 3.9
2016-Aug-25 22:33N 37°48' W 122°24'0 0.0
2016-Aug-25 21:33N 37°48' W 122°24'1010.5
2016-Aug-25 20:33N 37°57' W 122°30'4 0.2
2016-Aug-25 03:34N 37°55' W 122°27'4 3.5
2016-Aug-25 02:33N 37°51' W 122°29'6 5.5
2016-Aug-25 01:33N 37°48' W 122°23'4 3.7
2016-Aug-25 00:33N 37°51' W 122°26'2 1.7
2016-Aug-24 23:34N 37°51' W 122°28'5 4.9
2016-Aug-24 22:33N 37°48' W 122°24'10 9.8
2016-Aug-24 21:33N 37°56' W 122°30'1 0.0
2016-Aug-24 04:06N 37°57' W 122°31'4 7.5
2016-Aug-24 03:33N 37°54' W 122°26'3 3.4
2016-Aug-24 02:33N 37°51' W 122°29'5 5.5
2016-Aug-24 01:34N 37°48' W 122°23'4 3.9
2016-Aug-24 00:33N 37°51' W 122°27'1 1.2
2016-Aug-23 23:33N 37°51' W 122°28'5 4.9
2016-Aug-23 22:33N 37°48' W 122°24'10 9.5
2016-Aug-23 21:33N 37°56' W 122°29'1 0.1
2016-Aug-23 04:24N 37°57' W 122°31'6 6.9
2016-Aug-23 03:33N 37°52' W 122°27'5 4.7
2016-Aug-23 02:33N 37°48' W 122°24'5 5.4
2016-Aug-23 01:33N 37°51' W 122°29'5 5.4
2016-Aug-23 00:33N 37°48' W 122°24'2 2.5
2016-Aug-22 23:33N 37°50' W 122°25'2 2.1
2016-Aug-22 22:33N 37°51' W 122°27'4 4.2
2016-Aug-22 21:33N 37°48' W 122°24'5 5.4
2016-Aug-22 20:33N 37°51' W 122°29'5 4.6
2016-Aug-22 19:34N 37°49' W 122°24'1 1.2
2016-Aug-22 18:33N 37°48' W 122°24'5 5.4
2016-Aug-22 17:33N 37°51' W 122°29'5 5.5
2016-Aug-22 16:34N 37°48' W 122°24'3 2.6
2016-Aug-22 15:34N 37°50' W 122°25'3 2.5
2016-Aug-22 14:34N 37°48' W 122°23'10 9.5
2016-Aug-22 13:33N 37°56' W 122°30'1 1.0
2016-Aug-22 12:33N 37°57' W 122°31'0 0.0
2016-Aug-22 11:33N 37°57' W 122°31'0 0.0
2016-Aug-22 10:33N 37°57' W 122°31'0 0.0
2016-Aug-22 09:33N 37°57' W 122°31'0 0.0
2016-Aug-22 08:33N 37°57' W 122°31'0 0.0
2016-Aug-22 07:33N 37°57' W 122°31'0 0.0
2016-Aug-22 06:33N 37°57' W 122°31'0 0.0
2016-Aug-22 05:33N 37°57' W 122°31'0 0.0
2016-Aug-22 04:33N 37°57' W 122°31'8 8.5
2016-Aug-22 03:33N 37°50' W 122°24'4 4.0
2016-Aug-22 02:33N 37°51' W 122°29'5 5.4
2016-Aug-22 01:33N 37°48' W 122°23'5 5.0
2016-Aug-22 00:33N 37°51' W 122°28'3 2.8
2016-Aug-21 23:33N 37°50' W 122°25'2 2.3
2016-Aug-21 22:34N 37°48' W 122°23'5 5.4
2016-Aug-21 21:33N 37°51' W 122°29'6 5.6
2016-Aug-21 20:33N 37°57' W 122°31'0 0.0
2016-Aug-21 02:28N 37°57' W 122°31'8 8.7
2016-Aug-21 01:33N 37°51' W 122°24'4 3.8
2016-Aug-21 00:33N 37°51' W 122°29'5 5.4
2016-Aug-20 23:33N 37°48' W 122°24'5 5.3
2016-Aug-20 22:33N 37°51' W 122°28'3 3.4
2016-Aug-20 21:34N 37°49' W 122°25'  
Track history (hours):
 
Tides and Currents Weather Stations Pressure Air Temp Water Temp Dewpoint Dewpoint Depression Visibility Wind Speed Wind Dir Waves Ship Positions

M S San Francisco

Owner: GOLDEN GATE BRIDGE HWY & TRANSP DISTRICT, LARKSPUR, CA. More information available from US FCC via Universal Licensing System and Coast Guard Vessel Documentation Center.

Last reported at 2016-Aug-30 21:33 UTC. Time now 2016-Aug-30 22:30 UTC.
Position N 37°57' W 122°30'.

Length 58 m.

Type: Passenger vessel. MMSI: 366963980.

Date/timePositionNaut miles runAvg speedWind from/ knotsBaromVisibWave heightAir tempDewpointWater temp
2016-Aug-30 21:33N 37°57' W 122°30'4 0.2
2016-Aug-30 03:33N 37°55' W 122°26'4 3.7
2016-Aug-30 02:33N 37°51' W 122°29'6 5.5
2016-Aug-30 01:34N 37°48' W 122°23'4 4.3
2016-Aug-30 00:33N 37°51' W 122°27'0 0.4
2016-Aug-29 23:34N 37°51' W 122°27'4 3.8
2016-Aug-29 22:33N 37°48' W 122°23'10 9.9
2016-Aug-29 21:33N 37°56' W 122°30'1 0.6
2016-Aug-29 20:33N 37°57' W 122°31'0 0.0
2016-Aug-29 19:34N 37°57' W 122°31'0 0.0
2016-Aug-29 18:33N 37°57' W 122°31'0 0.0
2016-Aug-29 17:33N 37°57' W 122°31'0 0.0
2016-Aug-29 16:30N 37°57' W 122°31'0 0.0
2016-Aug-29 15:34N 37°57' W 122°31'0 0.0
2016-Aug-29 14:33N 37°57' W 122°31'0 0.0
2016-Aug-29 13:33N 37°57' W 122°31'0 0.0
2016-Aug-29 12:32N 37°57' W 122°31'0 0.0
2016-Aug-29 11:33N 37°57' W 122°31'0 0.0
2016-Aug-29 10:33N 37°57' W 122°31'0 0.0
2016-Aug-29 09:33N 37°57' W 122°31'0 0.0
2016-Aug-29 08:33N 37°57' W 122°31'0 0.0
2016-Aug-29 07:33N 37°57' W 122°31'0 0.0
2016-Aug-29 06:33N 37°57' W 122°31'0 0.0
2016-Aug-29 05:33N 37°57' W 122°31'0 0.0
2016-Aug-29 04:33N 37°57' W 122°31'0 0.0
2016-Aug-29 03:33N 37°57' W 122°31'0 0.0
2016-Aug-29 02:33N 37°57' W 122°31'1010.5
2016-Aug-29 01:33N 37°48' W 122°23'6 5.5
2016-Aug-29 00:33N 37°51' W 122°29'5 5.4
2016-Aug-28 23:33N 37°48' W 122°24'5 5.4
2016-Aug-28 22:33N 37°51' W 122°29'5 5.2
2016-Aug-28 21:33N 37°48' W 122°23'0 0.2
2016-Aug-28 20:34N 37°49' W 122°23'5 5.0
2016-Aug-28 19:33N 37°51' W 122°29'2 2.3
2016-Aug-28 18:33N 37°50' W 122°26'3 3.2
2016-Aug-28 17:33N 37°48' W 122°24'1110.6
2016-Aug-28 16:33N 37°57' W 122°31'7 0.6
2016-Aug-28 04:34N 37°51' W 122°24'5 4.8
2016-Aug-28 03:33N 37°47' W 122°23'0 0.0
2016-Aug-28 02:33N 37°47' W 122°23'0 0.0
2016-Aug-28 01:33N 37°47' W 122°23'0 0.0
2016-Aug-28 00:33N 37°47' W 122°23'1211.6
2016-Aug-27 23:33N 37°57' W 122°31'0 0.0
2016-Aug-27 22:33N 37°57' W 122°31'0 0.0
2016-Aug-27 21:33N 37°57' W 122°31'0 0.0
2016-Aug-27 20:33N 37°57' W 122°31'0 0.0
2016-Aug-27 19:33N 37°57' W 122°31'0 0.0
2016-Aug-27 18:33N 37°57' W 122°31'0 0.0
2016-Aug-27 17:33N 37°57' W 122°31'0 0.0
2016-Aug-27 16:33N 37°57' W 122°31'0 0.0
2016-Aug-27 15:33N 37°57' W 122°31'0 0.0
2016-Aug-27 14:33N 37°57' W 122°31'0 0.0
2016-Aug-27 13:33N 37°57' W 122°31'0 0.0
2016-Aug-27 12:33N 37°57' W 122°31'0 0.0
2016-Aug-27 11:33N 37°57' W 122°31'0 0.0
2016-Aug-27 10:33N 37°57' W 122°31'0 0.0
2016-Aug-27 09:33N 37°57' W 122°31'0 0.0
2016-Aug-27 08:33N 37°57' W 122°31'0 0.0
2016-Aug-27 07:33N 37°57' W 122°31'0 0.0
2016-Aug-27 06:33N 37°57' W 122°31'0 0.0
2016-Aug-27 04:33N 37°57' W 122°31'6 5.9
2016-Aug-27 03:33N 37°53' W 122°25'3 2.9
2016-Aug-27 02:33N 37°51' W 122°29'6 5.6
2016-Aug-27 01:34N 37°48' W 122°23'4 3.9
2016-Aug-27 00:34N 37°51' W 122°26'1 0.6
2016-Aug-26 23:33N 37°51' W 122°27'4 4.2
2016-Aug-26 22:33N 37°48' W 122°24'0 0.5
2016-Aug-26 21:34N 37°48' W 122°23'1010.3
2016-Aug-26 20:33N 37°57' W 122°31'3 0.2
2016-Aug-26 03:33N 37°55' W 122°27'4 3.9
2016-Aug-26 02:34N 37°51' W 122°29'5 5.5
2016-Aug-26 01:33N 37°48' W 122°23'4 4.0
2016-Aug-26 00:33N 37°51' W 122°27'1 0.5
2016-Aug-25 23:34N 37°51' W 122°27'4 3.9
2016-Aug-25 22:33N 37°48' W 122°24'0 0.0
2016-Aug-25 21:33N 37°48' W 122°24'1010.5
2016-Aug-25 20:33N 37°57' W 122°30'4 0.2
2016-Aug-25 03:34N 37°55' W 122°27'4 3.5
2016-Aug-25 02:33N 37°51' W 122°29'6 5.5
2016-Aug-25 01:33N 37°48' W 122°23'4 3.7
2016-Aug-25 00:33N 37°51' W 122°26'2 1.7
2016-Aug-24 23:34N 37°51' W 122°28'5 4.9
2016-Aug-24 22:33N 37°48' W 122°24'10 9.8
2016-Aug-24 21:33N 37°56' W 122°30'1 0.0
2016-Aug-24 04:06N 37°57' W 122°31'4 7.5
2016-Aug-24 03:33N 37°54' W 122°26'3 3.4
2016-Aug-24 02:33N 37°51' W 122°29'5 5.5
2016-Aug-24 01:34N 37°48' W 122°23'4 3.9
2016-Aug-24 00:33N 37°51' W 122°27'1 1.2
2016-Aug-23 23:33N 37°51' W 122°28'5 4.9
2016-Aug-23 22:33N 37°48' W 122°24'10 9.5
2016-Aug-23 21:33N 37°56' W 122°29'1 0.1
2016-Aug-23 04:24N 37°57' W 122°31'6 6.9
2016-Aug-23 03:33N 37°52' W 122°27'5 4.7
2016-Aug-23 02:33N 37°48' W 122°24'5 5.4
2016-Aug-23 01:33N 37°51' W 122°29'5 5.4
2016-Aug-23 00:33N 37°48' W 122°24'2 2.5
2016-Aug-22 23:33N 37°50' W 122°25'2 2.1
2016-Aug-22 22:33N 37°51' W 122°27'4 4.2
2016-Aug-22 21:33N 37°48' W 122°24'5 5.4
2016-Aug-22 20:33N 37°51' W 122°29'5 4.6
2016-Aug-22 19:34N 37°49' W 122°24'1 1.2
2016-Aug-22 18:33N 37°48' W 122°24'5 5.4
2016-Aug-22 17:33N 37°51' W 122°29'5 5.5
2016-Aug-22 16:34N 37°48' W 122°24'3 2.6
2016-Aug-22 15:34N 37°50' W 122°25'3 2.5
2016-Aug-22 14:34N 37°48' W 122°23'10 9.5
2016-Aug-22 13:33N 37°56' W 122°30'1 1.0
2016-Aug-22 12:33N 37°57' W 122°31'0 0.0
2016-Aug-22 11:33N 37°57' W 122°31'0 0.0
2016-Aug-22 10:33N 37°57' W 122°31'0 0.0
2016-Aug-22 09:33N 37°57' W 122°31'0 0.0
2016-Aug-22 08:33N 37°57' W 122°31'0 0.0
2016-Aug-22 07:33N 37°57' W 122°31'0 0.0
2016-Aug-22 06:33N 37°57' W 122°31'0 0.0
2016-Aug-22 05:33N 37°57' W 122°31'0 0.0
2016-Aug-22 04:33N 37°57' W 122°31'8 8.5
2016-Aug-22 03:33N 37°50' W 122°24'4 4.0
2016-Aug-22 02:33N 37°51' W 122°29'5 5.4
2016-Aug-22 01:33N 37°48' W 122°23'5 5.0
2016-Aug-22 00:33N 37°51' W 122°28'3 2.8
2016-Aug-21 23:33N 37°50' W 122°25'2 2.3
2016-Aug-21 22:34N 37°48' W 122°23'5 5.4
2016-Aug-21 21:33N 37°51' W 122°29'6 5.6
2016-Aug-21 20:33N 37°57' W 122°31'0 0.0
2016-Aug-21 02:28N 37°57' W 122°31'8 8.7
2016-Aug-21 01:33N 37°51' W 122°24'4 3.8
2016-Aug-21 00:33N 37°51' W 122°29'5 5.4
2016-Aug-20 23:33N 37°48' W 122°24'5 5.3
2016-Aug-20 22:33N 37°51' W 122°28'3 3.4
2016-Aug-20 21:34N 37°49' W 122°25'  

Dump ship's entire track history